Time;durP1;ratioP1;P1;durP2;ratioP2;P2;SDS_P1;SDS_P2;PMS_P1;PMS_P2;Temp;Humidity;BMP_temperature;BMP_pressure;BME280_temperature;BME280_humidity;BME280_pressure;Samples;Min_cycle;Max_cycle;Signal;HPM_P1;HPM_P2
2022/07/19 00:00:32;;;;;;;4.75;1.70;;;21.30;93.50;;;;;;5045696;28;20387;-60
2022/07/19 00:02:58;;;;;;;8.63;1.67;;;21.20;93.90;;;;;;5034617;28;20026;-58
2022/07/19 00:05:23;;;;;;;5.80;1.75;;;21.20;94.70;;;;;;5032427;28;20378;-58
2022/07/19 00:07:49;;;;;;;2.28;1.88;;;21.10;95.00;;;;;;5045647;28;20037;-58
2022/07/19 00:10:17;;;;;;;3.78;1.55;;;21.20;95.00;;;;;;5041430;28;20021;-58
2022/07/19 00:12:43;;;;;;;8.10;2.40;;;21.20;94.90;;;;;;5039292;28;20040;-58
2022/07/19 00:15:11;;;;;;;7.07;2.13;;;21.10;95.50;;;;;;5033360;28;20021;-57
2022/07/19 00:17:46;;;;;;;3.42;1.70;;;21.00;95.50;;;;;;5046553;28;20039;-57
2022/07/19 00:20:13;;;;;;;1.83;1.60;;;21.00;95.70;;;;;;5031932;28;20112;-58
2022/07/19 00:22:39;;;;;;;4.82;1.70;;;21.00;97.00;;;;;;5033297;28;20416;-58
2022/07/19 00:25:05;;;;;;;2.90;1.65;;;20.90;97.30;;;;;;5041548;28;20017;-58
2022/07/19 00:27:31;;;;;;;5.15;3.00;;;20.90;96.40;;;;;;5038535;28;20033;-58
2022/07/19 00:29:56;;;;;;;6.47;2.63;;;20.80;97.80;;;;;;5037241;28;20100;-57
2022/07/19 00:32:22;;;;;;;1.30;1.17;;;20.80;98.50;;;;;;5037906;28;20029;-58
2022/07/19 00:34:48;;;;;;;4.07;1.95;;;20.80;99.40;;;;;;5031680;28;20531;-57
2022/07/19 00:37:14;;;;;;;2.88;1.60;;;20.80;99.50;;;;;;5039247;28;20037;-58
2022/07/19 00:39:39;;;;;;;3.63;1.50;;;20.70;99.70;;;;;;5033058;28;20029;-57
2022/07/19 00:42:05;;;;;;;3.70;1.55;;;20.70;99.90;;;;;;5035709;28;20151;-57
2022/07/19 00:44:30;;;;;;;1.88;1.48;;;20.70;99.90;;;;;;5048057;28;20104;-57
2022/07/19 00:46:57;;;;;;;3.13;1.45;;;20.70;99.30;;;;;;5045862;28;20045;-58
2022/07/19 00:49:23;;;;;;;5.05;1.75;;;20.60;99.90;;;;;;5038606;28;20064;-58
2022/07/19 00:51:52;;;;;;;3.80;1.73;;;20.50;99.50;;;;;;5046036;28;20476;-57
2022/07/19 00:54:19;;;;;;;2.85;1.55;;;20.50;99.90;;;;;;5039265;28;20029;-58
2022/07/19 00:56:49;;;;;;;4.65;1.60;;;20.40;99.90;;;;;;5040104;28;20168;-58
2022/07/19 00:59:14;;;;;;;3.67;1.65;;;20.40;99.90;;;;;;5043325;28;20374;-58
2022/07/19 01:01:40;;;;;;;4.32;1.80;;;20.50;99.90;;;;;;5037548;28;20025;-58
2022/07/19 01:04:07;;;;;;;2.60;1.73;;;20.40;99.90;;;;;;5042597;28;20029;-57
2022/07/19 01:06:33;;;;;;;2.70;1.60;;;20.40;99.90;;;;;;5037945;28;20044;-58
2022/07/19 01:08:58;;;;;;;3.53;1.90;;;20.30;99.90;;;;;;5043080;28;20035;-57
2022/07/19 01:11:25;;;;;;;2.28;1.45;;;20.30;99.90;;;;;;5039504;28;20120;-58
2022/07/19 01:13:50;;;;;;;6.03;1.92;;;20.30;99.90;;;;;;5047390;28;20115;-58
2022/07/19 01:16:16;;;;;;;2.83;1.63;;;20.30;99.90;;;;;;5040087;28;20136;-58
2022/07/19 01:18:42;;;;;;;3.53;1.80;;;20.20;99.90;;;;;;5035091;28;20040;-59
2022/07/19 01:21:16;;;;;;;3.63;1.77;;;20.20;99.90;;;;;;5043833;28;20032;-58
2022/07/19 01:23:42;;;;;;;2.70;1.98;;;20.20;99.90;;;;;;5037604;28;20041;-58
2022/07/19 01:26:08;;;;;;;2.25;1.95;;;20.10;99.90;;;;;;5043707;28;20033;-58
2022/07/19 01:28:34;;;;;;;2.78;1.70;;;20.10;99.90;;;;;;5031254;28;20539;-59
2022/07/19 01:31:00;;;;;;;3.13;1.58;;;20.00;99.90;;;;;;5045384;28;20033;-58
2022/07/19 01:33:25;;;;;;;2.13;1.48;;;20.00;99.90;;;;;;5041938;28;20041;-58
2022/07/19 01:35:51;;;;;;;2.63;1.70;;;20.00;99.90;;;;;;5041359;28;20025;-58
2022/07/19 01:38:16;;;;;;;3.40;1.73;;;19.90;99.90;;;;;;5031497;28;20040;-58
2022/07/19 01:40:42;;;;;;;3.10;1.80;;;19.90;99.90;;;;;;5034616;28;20034;-58
2022/07/19 01:43:08;;;;;;;2.63;1.50;;;19.90;99.90;;;;;;5046426;28;20029;-58
2022/07/19 01:45:33;;;;;;;4.20;1.73;;;19.80;99.90;;;;;;5037169;28;20022;-58
2022/07/19 01:48:00;;;;;;;2.70;1.58;;;19.70;99.90;;;;;;5038298;28;20116;-58
2022/07/19 01:50:25;;;;;;;4.80;1.60;;;19.60;99.90;;;;;;5040603;28;20056;-58
2022/07/19 01:52:51;;;;;;;3.67;1.83;;;19.60;99.90;;;;;;5037119;28;20511;-57
2022/07/19 01:55:18;;;;;;;4.53;1.70;;;19.60;99.90;;;;;;5034976;28;20030;-57
2022/07/19 01:57:44;;;;;;;6.43;2.35;;;19.60;99.90;;;;;;5031305;28;20025;-58
2022/07/19 02:00:11;;;;;;;5.32;1.70;;;19.60;99.90;;;;;;5038269;28;20435;-57
2022/07/19 02:02:37;;;;;;;6.70;2.13;;;19.50;99.90;;;;;;5035165;28;20033;-57
2022/07/19 02:05:03;;;;;;;2.83;1.77;;;19.50;99.90;;;;;;5037336;28;20079;-58
2022/07/19 02:07:29;;;;;;;3.28;1.55;;;19.40;99.90;;;;;;5044475;28;20400;-59
2022/07/19 02:09:57;;;;;;;3.20;2.17;;;19.40;99.90;;;;;;5042144;28;20030;-57
2022/07/19 02:12:23;;;;;;;4.72;1.80;;;19.40;99.90;;;;;;5037251;28;20460;-58
2022/07/19 02:14:49;;;;;;;3.53;2.10;;;19.40;99.90;;;;;;5041708;28;20018;-57
2022/07/19 02:17:14;;;;;;;3.75;1.92;;;19.40;99.90;;;;;;5034307;28;20498;-57
2022/07/19 02:19:40;;;;;;;6.28;2.05;;;19.40;99.90;;;;;;5040857;28;20111;-57
2022/07/19 02:22:06;;;;;;;9.35;1.88;;;19.30;99.90;;;;;;5038390;28;20021;-57
2022/07/19 02:24:31;;;;;;;4.93;2.03;;;19.20;99.90;;;;;;5032928;28;20546;-57
2022/07/19 02:26:57;;;;;;;5.25;1.80;;;19.20;99.90;;;;;;5035487;28;20084;-57
2022/07/19 02:29:22;;;;;;;1.98;1.60;;;19.20;99.90;;;;;;5030235;28;20033;-58
2022/07/19 02:31:48;;;;;;;6.47;2.00;;;19.10;99.90;;;;;;5025073;28;20030;-58
2022/07/19 02:34:14;;;;;;;4.78;1.60;;;19.10;99.90;;;;;;5028400;28;20036;-58
2022/07/19 02:36:39;;;;;;;4.32;2.25;;;19.00;99.90;;;;;;5036978;28;20400;-59
2022/07/19 02:39:05;;;;;;;5.13;2.10;;;18.90;99.90;;;;;;5031523;28;20021;-59
2022/07/19 02:41:31;;;;;;;4.38;1.83;;;18.90;99.90;;;;;;5031114;28;20519;-61
2022/07/19 02:43:57;;;;;;;3.00;1.88;;;18.90;99.90;;;;;;5035965;28;20075;-59
2022/07/19 02:46:22;;;;;;;4.45;1.88;;;18.80;99.90;;;;;;5033702;28;20432;-58
2022/07/19 02:48:48;;;;;;;4.50;2.10;;;18.80;99.90;;;;;;5042677;28;20451;-58
2022/07/19 02:51:14;;;;;;;4.32;1.80;;;18.90;99.90;;;;;;5031798;28;20021;-58
2022/07/19 02:53:40;;;;;;;2.45;1.73;;;18.90;99.90;;;;;;5035573;28;20025;-58
2022/07/19 02:56:06;;;;;;;2.38;1.98;;;18.80;99.90;;;;;;5034510;28;20391;-58
2022/07/19 02:58:32;;;;;;;4.53;1.90;;;18.80;99.90;;;;;;5036394;28;20393;-58
2022/07/19 03:00:57;;;;;;;3.30;1.90;;;18.80;99.90;;;;;;5030632;28;20503;-58
2022/07/19 03:06:07;;;;;;;2.58;1.90;;;18.80;99.90;;;;;;5028732;28;20107;-58
2022/07/19 03:08:33;;;;;;;3.58;1.90;;;18.70;99.90;;;;;;5037511;28;20484;-59
2022/07/19 03:10:59;;;;;;;2.20;1.63;;;18.60;99.90;;;;;;5033655;28;20041;-59
2022/07/19 03:13:24;;;;;;;3.50;1.58;;;18.60;99.90;;;;;;5038249;28;20128;-58
2022/07/19 03:15:50;;;;;;;4.97;2.05;;;18.50;99.90;;;;;;5041227;28;20116;-58
2022/07/19 03:18:16;;;;;;;4.60;1.80;;;18.50;99.90;;;;;;5033271;28;20439;-58
2022/07/19 03:20:41;;;;;;;3.47;2.33;;;18.50;99.90;;;;;;5037322;28;20060;-58
2022/07/19 03:23:07;;;;;;;3.15;2.00;;;18.50;99.90;;;;;;5042797;28;20057;-58
2022/07/19 03:25:33;;;;;;;3.63;1.65;;;18.50;99.90;;;;;;5035226;28;20022;-58
2022/07/19 03:27:59;;;;;;;5.13;2.13;;;18.40;99.90;;;;;;5036867;28;20047;-58
2022/07/19 03:30:24;;;;;;;4.65;2.17;;;18.40;99.90;;;;;;5041100;28;20393;-58
2022/07/19 03:32:50;;;;;;;4.10;1.90;;;18.40;99.90;;;;;;5033645;28;20062;-58
2022/07/19 03:35:16;;;;;;;1.73;1.50;;;18.40;99.90;;;;;;5033176;28;20373;-58
2022/07/19 03:37:41;;;;;;;3.65;2.30;;;18.30;99.90;;;;;;5037907;28;20079;-58
2022/07/19 03:40:08;;;;;;;4.95;1.70;;;18.40;99.90;;;;;;5041331;28;20541;-58
2022/07/19 03:42:33;;;;;;;4.63;1.77;;;18.30;99.90;;;;;;5031152;28;20021;-58
2022/07/19 03:44:59;;;;;;;6.75;2.30;;;18.30;99.90;;;;;;5035341;28;20176;-58
2022/07/19 03:47:25;;;;;;;5.25;1.83;;;18.30;99.90;;;;;;5036976;28;20040;-58
2022/07/19 03:49:50;;;;;;;4.18;1.92;;;18.30;99.90;;;;;;5035202;28;20075;-58
2022/07/19 03:52:17;;;;;;;6.22;2.42;;;18.20;99.90;;;;;;5036915;28;20102;-58
2022/07/19 03:54:42;;;;;;;3.85;1.67;;;18.20;99.90;;;;;;5028101;28;20018;-58
2022/07/19 03:57:08;;;;;;;6.20;1.90;;;18.20;99.90;;;;;;5040195;28;20098;-57
2022/07/19 03:59:33;;;;;;;7.93;1.83;;;18.10;99.90;;;;;;5037218;28;20057;-57
2022/07/19 04:01:59;;;;;;;4.80;2.00;;;18.20;99.90;;;;;;5034984;28;20049;-57
2022/07/19 04:04:25;;;;;;;7.95;1.83;;;18.10;99.90;;;;;;5036257;28;20057;-57
2022/07/19 04:06:50;;;;;;;8.07;2.40;;;18.10;99.90;;;;;;5037586;28;20049;-58
2022/07/19 04:09:16;;;;;;;5.18;2.22;;;18.00;99.90;;;;;;5039284;28;20049;-59
2022/07/19 04:11:42;;;;;;;2.97;1.90;;;18.00;99.90;;;;;;5038571;28;20025;-59
2022/07/19 04:14:07;;;;;;;5.30;2.13;;;17.90;99.90;;;;;;5044119;28;20358;-57
2022/07/19 04:16:33;;;;;;;5.63;1.92;;;18.10;99.90;;;;;;5029662;28;20341;-57
2022/07/19 04:18:59;;;;;;;4.32;2.70;;;18.20;99.90;;;;;;5036180;28;20032;-57
2022/07/19 04:21:24;;;;;;;2.72;1.73;;;18.20;99.90;;;;;;5041294;28;20092;-58
2022/07/19 04:23:50;;;;;;;3.13;1.88;;;18.20;99.90;;;;;;5045397;28;20412;-58
2022/07/19 04:26:16;;;;;;;6.03;2.25;;;18.10;99.90;;;;;;5044580;28;20035;-58
2022/07/19 04:28:41;;;;;;;8.13;2.45;;;18.10;99.90;;;;;;5040392;28;20056;-57
2022/07/19 04:31:07;;;;;;;2.45;1.85;;;18.10;99.90;;;;;;5040221;28;20112;-57
2022/07/19 04:33:32;;;;;;;2.35;1.50;;;18.10;99.90;;;;;;5044576;28;20063;-58
2022/07/19 04:35:58;;;;;;;3.75;2.20;;;18.20;99.90;;;;;;5046780;28;20064;-59
2022/07/19 04:38:24;;;;;;;4.22;2.10;;;18.20;99.90;;;;;;5047048;28;20037;-58
2022/07/19 04:40:50;;;;;;;6.43;1.90;;;18.30;99.90;;;;;;5042254;28;20034;-57
2022/07/19 04:43:18;;;;;;;6.63;2.08;;;18.40;99.90;;;;;;5035897;28;20075;-58
2022/07/19 04:45:44;;;;;;;4.32;1.80;;;18.50;99.90;;;;;;5040836;28;20028;-58
2022/07/19 04:48:11;;;;;;;7.72;2.42;;;18.50;99.90;;;;;;5032822;28;20033;-58
2022/07/19 04:50:37;;;;;;;6.03;2.28;;;18.50;99.90;;;;;;5035271;28;20103;-58
2022/07/19 04:53:02;;;;;;;5.10;1.90;;;18.50;99.90;;;;;;5039567;28;20109;-58
2022/07/19 04:55:28;;;;;;;5.45;2.22;;;18.60;99.90;;;;;;5040958;28;20018;-58
2022/07/19 04:57:54;;;;;;;4.43;2.13;;;18.70;99.90;;;;;;5038431;28;20120;-57
2022/07/19 05:00:19;;;;;;;5.93;1.92;;;18.80;99.90;;;;;;5029647;28;20026;-58
2022/07/19 05:02:45;;;;;;;4.07;2.22;;;18.90;99.90;;;;;;5041472;28;20456;-58
2022/07/19 05:05:11;;;;;;;6.18;2.35;;;18.80;99.90;;;;;;5035529;28;20025;-58
2022/07/19 05:07:37;;;;;;;4.82;1.83;;;18.80;99.90;;;;;;5037860;28;20044;-57
2022/07/19 05:10:04;;;;;;;4.90;1.80;;;18.90;99.90;;;;;;5041349;28;20091;-58
2022/07/19 05:12:31;;;;;;;6.32;2.00;;;19.00;99.90;;;;;;5041435;28;20048;-58
2022/07/19 05:14:58;;;;;;;4.47;1.98;;;19.10;99.90;;;;;;5037775;28;20021;-58
2022/07/19 05:17:24;;;;;;;6.15;1.80;;;19.10;99.90;;;;;;5038447;28;20036;-58
2022/07/19 05:19:50;;;;;;;6.10;1.70;;;19.10;99.90;;;;;;5039879;28;20022;-57
2022/07/19 05:22:15;;;;;;;5.68;1.92;;;19.20;99.90;;;;;;5033004;28;20031;-58
2022/07/19 05:24:41;;;;;;;4.65;2.28;;;19.20;99.90;;;;;;5031527;28;20464;-57
2022/07/19 05:27:07;;;;;;;3.53;1.85;;;19.30;99.90;;;;;;5029681;28;20118;-57
2022/07/19 05:29:34;;;;;;;5.25;2.65;;;19.40;99.90;;;;;;5036433;28;20030;-57
2022/07/19 05:31:59;;;;;;;5.20;2.28;;;19.40;99.90;;;;;;5033438;28;20029;-57
2022/07/19 05:34:25;;;;;;;5.15;1.88;;;19.50;99.90;;;;;;5034124;28;20374;-58
2022/07/19 05:36:51;;;;;;;7.32;1.70;;;19.50;99.90;;;;;;5038201;28;20056;-57
2022/07/19 05:39:16;;;;;;;8.00;2.10;;;19.70;99.90;;;;;;5027921;28;20389;-58
2022/07/19 05:41:43;;;;;;;4.63;2.03;;;19.90;99.90;;;;;;5025172;28;20065;-58
2022/07/19 05:44:09;;;;;;;10.00;2.72;;;19.90;99.90;;;;;;5035220;28;20028;-58
2022/07/19 05:46:40;;;;;;;5.07;1.80;;;20.00;99.90;;;;;;5035580;28;20041;-57
2022/07/19 05:49:07;;;;;;;4.90;1.92;;;20.10;99.90;;;;;;5030031;28;20032;-58
2022/07/19 05:51:33;;;;;;;6.03;1.85;;;20.20;99.90;;;;;;5030745;28;20389;-58
2022/07/19 05:54:00;;;;;;;6.10;2.13;;;20.30;99.90;;;;;;5031094;28;20032;-62
2022/07/19 05:56:26;;;;;;;11.48;1.77;;;20.50;99.90;;;;;;5030249;28;20034;-58
2022/07/19 05:58:52;;;;;;;9.68;1.90;;;20.60;99.90;;;;;;5034370;28;20397;-58
2022/07/19 06:01:18;;;;;;;3.67;1.95;;;20.70;99.90;;;;;;5030270;28;20393;-58
2022/07/19 06:03:47;;;;;;;10.43;3.10;;;20.80;99.90;;;;;;5034958;28;20055;-58
2022/07/19 06:06:13;;;;;;;5.60;1.73;;;20.90;99.90;;;;;;5028556;28;20026;-57
2022/07/19 06:08:40;;;;;;;10.25;2.58;;;21.00;99.90;;;;;;5036210;28;20076;-57
2022/07/19 06:11:05;;;;;;;6.20;1.92;;;21.00;99.90;;;;;;5033124;28;20381;-59
2022/07/19 06:13:31;;;;;;;8.27;2.53;;;21.10;99.90;;;;;;5036695;28;20531;-58
2022/07/19 06:15:57;;;;;;;7.85;2.30;;;21.20;99.90;;;;;;5032767;28;20115;-58
2022/07/19 06:18:23;;;;;;;4.65;1.98;;;21.20;99.90;;;;;;5030273;28;20042;-59
2022/07/19 06:20:48;;;;;;;7.28;1.75;;;21.20;99.90;;;;;;5028805;28;20033;-58
2022/07/19 06:23:14;;;;;;;5.45;2.47;;;21.30;99.90;;;;;;5037071;28;20045;-59
2022/07/19 06:25:40;;;;;;;6.03;2.38;;;21.30;99.90;;;;;;5029620;28;20034;-61
2022/07/19 06:28:05;;;;;;;4.07;1.70;;;21.40;99.90;;;;;;5024787;28;20061;-58
2022/07/19 06:30:31;;;;;;;4.45;2.10;;;21.60;99.90;;;;;;5030826;28;20535;-59
2022/07/19 06:32:58;;;;;;;4.63;1.55;;;21.60;99.90;;;;;;5025768;28;20400;-59
2022/07/19 06:35:24;;;;;;;5.93;1.60;;;21.70;99.90;;;;;;5036972;28;20033;-58
2022/07/19 06:37:50;;;;;;;8.75;2.92;;;21.70;99.90;;;;;;5024367;28;20447;-57
2022/07/19 06:40:15;;;;;;;9.23;2.55;;;21.80;99.90;;;;;;5017639;28;20037;-58
2022/07/19 06:42:41;;;;;;;8.15;2.20;;;21.90;99.90;;;;;;5033524;28;20046;-58
2022/07/19 06:45:07;;;;;;;4.95;1.75;;;21.90;99.90;;;;;;5030678;28;21752;-58
2022/07/19 06:47:33;;;;;;;9.30;2.33;;;22.00;99.90;;;;;;5032967;28;20041;-59
2022/07/19 06:49:59;;;;;;;5.82;1.92;;;22.20;99.90;;;;;;5027369;28;20045;-60
2022/07/19 06:52:25;;;;;;;8.43;2.15;;;22.20;99.90;;;;;;5039016;28;20071;-59
2022/07/19 06:54:50;;;;;;;6.97;2.38;;;22.30;99.90;;;;;;5037491;28;20025;-59
2022/07/19 06:57:16;;;;;;;8.15;2.17;;;22.30;99.90;;;;;;5041044;28;20021;-57
2022/07/19 06:59:42;;;;;;;10.00;2.90;;;22.40;99.90;;;;;;5031823;28;20025;-59
2022/07/19 07:02:07;;;;;;;9.75;2.50;;;22.40;99.90;;;;;;5031817;28;20079;-58
2022/07/19 07:04:33;;;;;;;4.47;2.17;;;22.50;99.90;;;;;;5031129;28;22085;-59
2022/07/19 07:06:59;;;;;;;4.10;2.08;;;22.60;99.90;;;;;;5029857;28;20029;-59
2022/07/19 07:09:25;;;;;;;5.85;1.90;;;22.70;99.90;;;;;;5034690;28;20504;-59
2022/07/19 07:11:51;;;;;;;6.13;2.03;;;22.80;99.90;;;;;;5034564;28;20025;-58
2022/07/19 07:14:16;;;;;;;5.78;1.65;;;23.00;99.90;;;;;;5035932;28;20400;-58
2022/07/19 07:16:42;;;;;;;12.23;1.77;;;23.10;99.90;;;;;;5038828;28;20029;-58
2022/07/19 07:19:08;;;;;;;4.22;1.92;;;23.10;99.90;;;;;;5035138;28;20033;-58
2022/07/19 07:21:35;;;;;;;7.28;2.45;;;23.20;99.90;;;;;;5030899;28;20452;-58
2022/07/19 07:24:05;;;;;;;5.40;2.08;;;23.30;99.90;;;;;;5031657;28;20126;-59
2022/07/19 07:26:31;;;;;;;8.57;1.80;;;23.40;99.90;;;;;;5036568;28;20029;-59
2022/07/19 07:28:58;;;;;;;5.70;1.55;;;23.50;99.90;;;;;;5035190;28;20025;-59
2022/07/19 07:31:24;;;;;;;7.47;1.95;;;23.60;99.90;;;;;;5029062;28;20112;-59
2022/07/19 07:33:50;;;;;;;10.70;2.97;;;23.70;99.90;;;;;;5035518;28;20112;-59
2022/07/19 07:36:16;;;;;;;13.18;2.30;;;23.80;99.90;;;;;;5034409;28;20025;-57
2022/07/19 07:38:41;;;;;;;7.10;1.70;;;24.00;99.90;;;;;;5036947;28;20457;-57
2022/07/19 07:41:08;;;;;;;8.35;1.40;;;24.10;99.90;;;;;;5024816;28;20425;-57
2022/07/19 07:43:35;;;;;;;5.88;1.90;;;24.20;99.90;;;;;;5036321;28;20636;-58
2022/07/19 07:46:01;;;;;;;4.78;1.70;;;24.20;99.90;;;;;;5028455;28;20488;-58
2022/07/19 07:48:26;;;;;;;6.78;2.45;;;24.30;99.90;;;;;;5031047;28;20037;-58
2022/07/19 07:50:52;;;;;;;6.78;2.22;;;24.40;99.90;;;;;;5033781;28;20060;-59
2022/07/19 07:53:17;;;;;;;3.75;1.95;;;24.50;99.90;;;;;;5026164;28;20566;-59
2022/07/19 07:55:43;;;;;;;10.65;2.53;;;24.70;99.90;;;;;;5029176;28;20429;-59
2022/07/19 07:58:10;;;;;;;6.75;1.60;;;24.70;99.90;;;;;;5019885;28;20040;-59
2022/07/19 08:00:37;;;;;;;9.27;2.10;;;24.90;99.90;;;;;;5032657;28;20013;-59
2022/07/19 08:03:03;;;;;;;4.93;1.80;;;25.00;99.90;;;;;;5024054;28;20412;-59
2022/07/19 08:05:29;;;;;;;5.18;2.10;;;25.00;99.90;;;;;;5029791;28;20025;-60
2022/07/19 08:07:55;;;;;;;7.47;2.40;;;25.10;99.90;;;;;;5032836;28;20041;-60
2022/07/19 08:10:23;;;;;;;4.55;1.90;;;25.30;99.90;;;;;;5033857;28;20033;-59
2022/07/19 08:12:50;;;;;;;9.55;2.50;;;25.50;99.90;;;;;;5037824;28;20029;-58
2022/07/19 08:15:16;;;;;;;10.77;2.38;;;25.60;99.50;;;;;;5030373;28;20087;-58
2022/07/19 08:17:41;;;;;;;5.80;1.77;;;25.70;99.20;;;;;;5029641;28;20120;-58
2022/07/19 08:20:08;;;;;;;6.88;2.15;;;25.90;99.20;;;;;;5032336;28;20117;-61
2022/07/19 08:22:34;;;;;;;7.20;2.33;;;26.00;98.00;;;;;;5031556;28;20412;-59
2022/07/19 08:24:59;;;;;;;7.80;1.95;;;26.20;98.10;;;;;;5027514;28;20041;-57
2022/07/19 08:27:25;;;;;;;10.48;2.38;;;26.20;98.30;;;;;;5033590;28;20037;-60
2022/07/19 08:29:51;;;;;;;9.20;2.30;;;26.40;98.10;;;;;;5030713;28;20033;-59
2022/07/19 08:32:16;;;;;;;6.75;2.10;;;26.50;97.10;;;;;;5033855;28;20505;-59
2022/07/19 08:34:42;;;;;;;5.82;1.95;;;26.70;98.90;;;;;;5033397;28;20061;-59
2022/07/19 08:37:08;;;;;;;8.23;2.92;;;26.80;97.80;;;;;;5032879;28;20036;-60
2022/07/19 08:39:33;;;;;;;6.95;2.92;;;26.90;97.70;;;;;;5033241;28;20029;-59
2022/07/19 08:41:59;;;;;;;7.47;2.40;;;27.10;97.00;;;;;;5027518;28;20040;-58
2022/07/19 08:44:25;;;;;;;9.18;2.03;;;27.40;95.30;;;;;;5034739;28;20076;-59
2022/07/19 08:46:53;;;;;;;3.65;2.35;;;27.80;93.30;;;;;;5029780;28;20041;-60
2022/07/19 08:49:19;;;;;;;8.02;3.28;;;28.10;85.80;;;;;;5030756;28;20457;-59
2022/07/19 08:51:47;;;;;;;5.18;2.20;;;28.70;78.80;;;;;;5029435;28;20036;-59
2022/07/19 08:54:12;;;;;;;13.02;2.95;;;29.00;74.30;;;;;;5029964;28;20397;-59
2022/07/19 08:59:23;;;;;;;8.27;3.05;;;29.70;62.50;;;;;;5029512;28;20179;-59
2022/07/19 09:01:49;;;;;;;26.50;4.70;;;30.10;56.80;;;;;;5031282;28;20028;-59
2022/07/19 09:04:21;;;;;;;3.67;2.53;;;30.40;56.50;;;;;;5029360;28;20025;-60
2022/07/19 09:06:50;;;;;;;8.07;2.90;;;30.50;55.20;;;;;;5031214;28;20025;-58
2022/07/19 09:09:18;;;;;;;8.20;2.90;;;30.60;53.30;;;;;;5027765;28;20457;-58
2022/07/19 09:11:49;;;;;;;6.88;2.33;;;30.50;55.00;;;;;;5029851;28;20063;-59
2022/07/19 09:14:17;;;;;;;8.73;3.03;;;30.50;53.10;;;;;;5029205;28;20026;-58
2022/07/19 09:17:06;;;;;;;8.65;2.70;;;30.60;52.80;;;;;;5030134;28;20113;-60
2022/07/19 09:19:43;;;;;;;8.73;2.83;;;30.80;50.80;;;;;;5029746;28;20030;-59
2022/07/19 09:22:14;;;;;;;8.63;2.88;;;30.90;52.80;;;;;;5029109;28;20040;-60
2022/07/19 09:24:42;;;;;;;8.20;3.10;;;31.30;48.30;;;;;;5029068;28;20033;-59
2022/07/19 09:27:14;;;;;;;6.13;3.10;;;31.50;49.70;;;;;;5033030;28;20041;-59
2022/07/19 09:29:41;;;;;;;;;;;31.50;48.80;;;;;;5034545;28;20029;-59
2022/07/19 09:32:18;;;;;;;7.38;3.17;;;31.60;48.00;;;;;;5031600;28;19909;-58
2022/07/19 09:34:51;;;;;;;9.57;3.20;;;32.00;45.00;;;;;;5028442;28;20156;-58
2022/07/19 09:37:29;;;;;;;9.40;3.10;;;32.40;46.40;;;;;;5028765;28;20041;-58
2022/07/19 09:40:06;;;;;;;7.22;3.15;;;32.30;47.20;;;;;;5025588;28;20029;-59
2022/07/19 09:42:37;;;;;;;6.18;2.80;;;32.10;47.70;;;;;;5028853;28;20037;-59
2022/07/19 09:45:08;;;;;;;6.40;3.35;;;32.20;45.10;;;;;;5027697;28;20084;-58
2022/07/19 09:47:38;;;;;;;9.82;2.97;;;32.30;45.00;;;;;;5028627;28;20045;-59
2022/07/19 09:50:07;;;;;;;12.63;3.20;;;32.40;43.50;;;;;;5027146;28;20034;-58
2022/07/19 09:52:35;;;;;;;9.52;3.28;;;32.80;41.70;;;;;;5025041;28;20113;-60
2022/07/19 09:55:06;;;;;;;9.90;4.55;;;33.10;40.50;;;;;;5024320;28;20072;-60
2022/07/19 09:57:38;;;;;;;8.15;3.13;;;33.30;42.00;;;;;;5028840;28;20056;-60
2022/07/19 10:00:05;;;;;;;8.30;3.17;;;33.50;39.90;;;;;;5026844;28;20048;-60
2022/07/19 10:02:37;;;;;;;7.32;3.75;;;33.70;39.60;;;;;;5028318;28;20627;-60
2022/07/19 10:05:05;;;;;;;9.43;3.30;;;33.90;38.20;;;;;;5028261;28;20065;-59
2022/07/19 10:07:32;;;;;;;8.50;3.40;;;33.90;39.40;;;;;;5029162;28;20424;-59
2022/07/19 10:10:02;;;;;;;12.85;3.55;;;34.00;39.90;;;;;;5030263;28;20037;-58
2022/07/19 10:12:29;;;;;;;10.50;3.08;;;34.00;39.60;;;;;;5033005;28;20033;-60
2022/07/19 10:14:55;;;;;;;19.00;4.40;;;34.10;37.70;;;;;;5030593;28;20057;-60
2022/07/19 10:17:35;;;;;;;12.65;3.38;;;34.30;37.00;;;;;;5027043;28;20037;-59
2022/07/19 10:20:02;;;;;;;9.32;4.07;;;34.50;38.10;;;;;;5025402;28;20036;-58
2022/07/19 10:22:28;;;;;;;8.60;2.95;;;34.50;40.40;;;;;;5027827;28;20041;-60
2022/07/19 10:25:12;;;;;;;14.02;4.38;;;34.50;42.50;;;;;;5027202;28;20072;-59
2022/07/19 10:27:44;;;;;;;8.90;2.78;;;34.30;43.20;;;;;;5027395;28;20044;-59
2022/07/19 10:30:12;;;;;;;13.95;3.20;;;34.40;43.40;;;;;;5028308;28;20504;-59
2022/07/19 10:32:46;;;;;;;6.95;2.53;;;34.60;42.50;;;;;;5032281;28;20087;-59
2022/07/19 10:35:15;;;;;;;7.82;3.13;;;34.70;42.80;;;;;;5027783;28;20029;-59
2022/07/19 10:37:43;;;;;;;6.70;2.70;;;34.60;42.80;;;;;;5027521;28;20036;-59
2022/07/19 10:40:09;;;;;;;5.72;3.22;;;34.50;43.30;;;;;;5025626;28;20428;-59
2022/07/19 10:42:35;;;;;;;7.47;2.80;;;34.50;43.60;;;;;;5029589;28;20029;-59
2022/07/19 10:45:00;;;;;;;13.65;3.42;;;34.40;43.50;;;;;;5026480;28;20029;-59
2022/07/19 10:47:32;;;;;;;11.95;3.00;;;34.50;43.60;;;;;;5025850;28;20033;-59
2022/07/19 10:50:05;;;;;;;7.45;3.20;;;34.60;44.20;;;;;;5027278;28;20063;-59
2022/07/19 10:52:36;;;;;;;6.03;2.25;;;34.60;44.20;;;;;;5028316;28;20038;-59
2022/07/19 10:55:27;;;;;;;10.20;2.45;;;34.60;43.50;;;;;;5030531;28;20096;-60
2022/07/19 10:57:58;;;;;;;;;;;34.60;43.00;;;;;;5028794;28;20033;-59
2022/07/19 11:00:28;;;;;;;;;;;34.60;42.00;;;;;;5029585;28;20359;-59
2022/07/19 11:03:25;;;;;;;17.88;5.18;;;34.80;42.30;;;;;;5030752;28;19916;-59
2022/07/19 11:06:00;;;;;;;14.93;3.10;;;35.00;42.20;;;;;;5029422;28;20052;-58
2022/07/19 11:08:32;;;;;;;7.50;2.70;;;35.20;41.70;;;;;;5031001;28;20045;-57
2022/07/19 11:11:10;;;;;;;7.45;2.55;;;35.50;41.20;;;;;;5030575;28;20037;-59
2022/07/19 11:13:37;;;;;;;7.72;3.42;;;36.00;39.90;;;;;;5024357;28;20026;-59
2022/07/19 11:16:04;;;;;;;8.40;3.25;;;36.40;40.10;;;;;;5024929;28;20445;-58
2022/07/19 11:18:31;;;;;;;9.93;3.42;;;36.80;39.90;;;;;;5025555;28;20362;-58
2022/07/19 11:20:58;;;;;;;11.90;3.70;;;37.10;38.90;;;;;;5026941;28;20465;-58
2022/07/19 11:23:29;;;;;;;5.13;2.90;;;37.40;36.80;;;;;;5026690;28;20420;-59
2022/07/19 11:26:12;;;;;;;5.68;3.60;;;37.40;35.40;;;;;;5025822;28;20159;-59
2022/07/19 11:28:40;;;;;;;9.57;3.45;;;37.60;36.10;;;;;;5031772;28;20492;-58
2022/07/19 11:31:21;;;;;;;9.95;3.58;;;37.70;35.60;;;;;;5025709;28;20025;-57
2022/07/19 11:33:49;;;;;;;9.57;4.05;;;37.80;36.00;;;;;;5027519;28;20484;-58
2022/07/19 11:36:16;;;;;;;11.90;3.70;;;38.10;34.90;;;;;;5028863;28;20105;-58
2022/07/19 11:38:49;;;;;;;6.43;4.30;;;38.30;34.80;;;;;;5032539;28;20033;-59
2022/07/19 11:41:20;;;;;;;8.05;4.10;;;38.30;34.40;;;;;;5028735;28;20021;-59
2022/07/19 11:44:03;;;;;;;8.20;3.13;;;38.50;35.20;;;;;;5030861;28;20393;-58
2022/07/19 11:46:42;;;;;;;8.20;3.20;;;38.50;35.00;;;;;;5031887;28;20532;-58
2022/07/19 11:49:10;;;;;;;9.73;3.78;;;38.50;35.20;;;;;;5031528;28;20088;-58
2022/07/19 11:51:36;;;;;;;6.20;3.50;;;38.20;35.30;;;;;;5029801;28;20026;-58
2022/07/19 11:54:04;;;;;;;9.00;3.60;;;38.20;35.70;;;;;;5029468;28;20075;-58
2022/07/19 11:56:32;;;;;;;9.25;3.95;;;38.00;35.60;;;;;;5030192;28;20030;-58
2022/07/19 11:59:00;;;;;;;7.88;3.25;;;38.00;35.60;;;;;;5037320;28;20033;-57
2022/07/19 12:01:37;;;;;;;8.18;2.90;;;38.00;35.50;;;;;;5030756;28;20029;-58
2022/07/19 12:04:08;;;;;;;7.45;3.67;;;38.30;35.10;;;;;;5026596;28;20044;-58
2022/07/19 12:06:48;;;;;;;9.82;3.75;;;38.10;34.50;;;;;;5032339;28;20104;-58
2022/07/19 12:09:27;;;;;;;11.65;4.25;;;38.10;34.80;;;;;;5031299;28;20026;-59
2022/07/19 12:11:54;;;;;;;8.43;3.53;;;38.60;34.80;;;;;;5030423;28;20481;-58
2022/07/19 12:14:21;;;;;;;10.75;3.85;;;38.60;34.50;;;;;;5035321;28;20482;-57
2022/07/19 12:16:49;;;;;;;6.43;3.55;;;38.60;34.60;;;;;;5033998;28;20050;-57
2022/07/19 12:19:19;;;;;;;12.68;3.53;;;38.90;34.30;;;;;;5042835;28;20059;-57
2022/07/19 12:21:45;;;;;;;7.30;3.60;;;39.00;33.80;;;;;;5030371;28;20073;-57
2022/07/19 12:24:23;;;;;;;15.05;4.25;;;39.10;33.20;;;;;;5034223;28;20053;-57
2022/07/19 12:26:51;;;;;;;4.32;3.15;;;39.50;33.40;;;;;;5033197;28;20022;-58
2022/07/19 12:29:31;;;;;;;9.27;3.92;;;39.60;32.80;;;;;;5029241;28;20112;-57
2022/07/19 12:32:01;;;;;;;8.77;3.33;;;39.60;31.80;;;;;;5029312;28;20053;-58
2022/07/19 12:34:27;;;;;;;;;;;39.00;32.30;;;;;;5031501;28;20043;-58
2022/07/19 12:36:54;;;;;;;9.40;3.72;;;38.90;32.40;;;;;;5030672;28;20000;-58
2022/07/19 12:39:27;;;;;;;5.35;3.38;;;39.20;33.10;;;;;;5028052;28;20029;-58
2022/07/19 12:42:05;;;;;;;6.93;3.70;;;39.50;32.20;;;;;;5030192;28;20018;-58
2022/07/19 12:44:33;;;;;;;12.73;4.25;;;39.80;31.30;;;;;;5032054;28;20037;-57
2022/07/19 12:46:59;;;;;;;7.72;4.07;;;40.10;31.30;;;;;;5026959;28;20033;-57
2022/07/19 12:49:39;;;;;;;9.68;4.57;;;40.30;30.80;;;;;;5030212;28;20040;-57
2022/07/19 12:52:05;;;;;;;10.85;4.60;;;40.50;30.70;;;;;;5031699;28;20761;-58
2022/07/19 12:54:31;;;;;;;10.80;4.15;;;40.70;30.30;;;;;;5018345;28;20032;-58